Russelville, Illinois
Current Conditions -  °F | °C
As of 1:53 PM on Friday 28 Nov 2014 (Local Time) from KLWV Reporting Station
Clear Clear  
Wind Chill:   Ceiling: Unl
Heat Index:   Visibility: 7mi
Dew Point: -1°   Wind: 16mph
Humidity: 65%   Direction: 180°S
Pressure: 30.16"   Gusts: 25mph
Location:  38.7501°N, 87.6141°W
Report Text: KLWV 281953Z AUTO 18014G22KT 7SM CLR 05/M01 A3016 RMK AO2 SLP216 T00501011
Loading
Personal Weather Stations






























Interactive Weather Map New forecast layout! Learn more

10-Day Weather Forecast

Advertisements
Track Severe Weather on mobile